sensor_id;sensor_type;location;lat;lon;timestamp;P1;durP1;ratioP1;P2;durP2;ratioP2
67757;SDS011;54562;47.620;18.786;2023-04-01T00:00:19;6.10;;;2.70;;
67757;SDS011;54562;47.620;18.786;2023-04-01T00:03:28;6.20;;;3.10;;
67757;SDS011;54562;47.620;18.786;2023-04-01T00:06:43;5.40;;;2.70;;
67757;SDS011;54562;47.620;18.786;2023-04-01T00:09:52;5.50;;;2.60;;
67757;SDS011;54562;47.620;18.786;2023-04-01T00:13:02;5.50;;;2.60;;
67757;SDS011;54562;47.620;18.786;2023-04-01T00:16:11;5.90;;;2.70;;
67757;SDS011;54562;47.620;18.786;2023-04-01T00:19:23;5.30;;;2.50;;
67757;SDS011;54562;47.620;18.786;2023-04-01T00:22:30;5.30;;;2.70;;
67757;SDS011;54562;47.620;18.786;2023-04-01T00:25:38;5.20;;;2.40;;
67757;SDS011;54562;47.620;18.786;2023-04-01T00:28:48;5.50;;;2.20;;
67757;SDS011;54562;47.620;18.786;2023-04-01T00:35:05;5.00;;;2.30;;
67757;SDS011;54562;47.620;18.786;2023-04-01T00:38:15;6.20;;;2.70;;
67757;SDS011;54562;47.620;18.786;2023-04-01T00:41:23;5.20;;;2.10;;
67757;SDS011;54562;47.620;18.786;2023-04-01T00:44:36;5.70;;;2.40;;
67757;SDS011;54562;47.620;18.786;2023-04-01T00:47:44;5.70;;;2.20;;
67757;SDS011;54562;47.620;18.786;2023-04-01T00:50:56;4.10;;;2.00;;
67757;SDS011;54562;47.620;18.786;2023-04-01T00:54:07;5.60;;;2.20;;
67757;SDS011;54562;47.620;18.786;2023-04-01T01:00:29;3.70;;;1.80;;
67757;SDS011;54562;47.620;18.786;2023-04-01T01:03:37;4.70;;;1.70;;
67757;SDS011;54562;47.620;18.786;2023-04-01T01:06:50;3.50;;;1.70;;
67757;SDS011;54562;47.620;18.786;2023-04-01T01:10:13;5.10;;;1.90;;
67757;SDS011;54562;47.620;18.786;2023-04-01T01:13:28;4.60;;;1.90;;
67757;SDS011;54562;47.620;18.786;2023-04-01T01:16:45;4.10;;;1.70;;
67757;SDS011;54562;47.620;18.786;2023-04-01T01:27:23;4.10;;;1.70;;
67757;SDS011;54562;47.620;18.786;2023-04-01T01:30:38;4.30;;;1.90;;
67757;SDS011;54562;47.620;18.786;2023-04-01T01:34:04;5.10;;;1.80;;
67757;SDS011;54562;47.620;18.786;2023-04-01T01:37:25;5.30;;;2.00;;
67757;SDS011;54562;47.620;18.786;2023-04-01T01:40:37;6.30;;;2.30;;
67757;SDS011;54562;47.620;18.786;2023-04-01T01:43:49;5.60;;;2.40;;
67757;SDS011;54562;47.620;18.786;2023-04-01T01:47:01;5.10;;;2.40;;
67757;SDS011;54562;47.620;18.786;2023-04-01T01:50:11;5.50;;;2.50;;
67757;SDS011;54562;47.620;18.786;2023-04-01T01:56:29;5.00;;;1.70;;
67757;SDS011;54562;47.620;18.786;2023-04-01T01:59:41;5.20;;;2.00;;
67757;SDS011;54562;47.620;18.786;2023-04-01T02:02:51;4.40;;;2.00;;
67757;SDS011;54562;47.620;18.786;2023-04-01T02:06:03;4.00;;;1.70;;
67757;SDS011;54562;47.620;18.786;2023-04-01T02:09:13;4.20;;;1.80;;
67757;SDS011;54562;47.620;18.786;2023-04-01T02:12:23;3.30;;;1.70;;
67757;SDS011;54562;47.620;18.786;2023-04-01T02:18:36;3.90;;;1.90;;
67757;SDS011;54562;47.620;18.786;2023-04-01T02:21:45;4.50;;;1.90;;
67757;SDS011;54562;47.620;18.786;2023-04-01T02:25:00;4.70;;;1.90;;
67757;SDS011;54562;47.620;18.786;2023-04-01T02:28:13;4.90;;;1.80;;
67757;SDS011;54562;47.620;18.786;2023-04-01T02:31:25;4.40;;;1.80;;
67757;SDS011;54562;47.620;18.786;2023-04-01T02:34:35;3.80;;;2.00;;
67757;SDS011;54562;47.620;18.786;2023-04-01T02:37:45;3.90;;;1.80;;
67757;SDS011;54562;47.620;18.786;2023-04-01T02:41:00;4.80;;;1.80;;
67757;SDS011;54562;47.620;18.786;2023-04-01T02:44:12;4.10;;;1.70;;
67757;SDS011;54562;47.620;18.786;2023-04-01T02:47:21;4.20;;;1.90;;
67757;SDS011;54562;47.620;18.786;2023-04-01T02:50:29;4.70;;;2.00;;
67757;SDS011;54562;47.620;18.786;2023-04-01T02:53:37;4.30;;;2.10;;
67757;SDS011;54562;47.620;18.786;2023-04-01T02:56:46;3.90;;;1.80;;
67757;SDS011;54562;47.620;18.786;2023-04-01T02:59:54;4.40;;;2.00;;
67757;SDS011;54562;47.620;18.786;2023-04-01T03:03:02;4.60;;;1.90;;
67757;SDS011;54562;47.620;18.786;2023-04-01T03:06:12;4.40;;;1.80;;
67757;SDS011;54562;47.620;18.786;2023-04-01T03:09:22;4.40;;;2.00;;
67757;SDS011;54562;47.620;18.786;2023-04-01T03:12:30;4.30;;;2.00;;
67757;SDS011;54562;47.620;18.786;2023-04-01T03:15:39;5.70;;;2.90;;
67757;SDS011;54562;47.620;18.786;2023-04-01T03:18:48;6.40;;;2.90;;
67757;SDS011;54562;47.620;18.786;2023-04-01T03:21:57;6.50;;;2.80;;
67757;SDS011;54562;47.620;18.786;2023-04-01T03:25:07;7.90;;;2.70;;
67757;SDS011;54562;47.620;18.786;2023-04-01T03:28:15;5.10;;;2.20;;
67757;SDS011;54562;47.620;18.786;2023-04-01T03:31:24;4.00;;;1.90;;
67757;SDS011;54562;47.620;18.786;2023-04-01T03:34:33;4.30;;;2.00;;
67757;SDS011;54562;47.620;18.786;2023-04-01T03:37:41;4.20;;;2.00;;
67757;SDS011;54562;47.620;18.786;2023-04-01T03:40:49;4.60;;;2.00;;
67757;SDS011;54562;47.620;18.786;2023-04-01T03:43:57;5.40;;;2.50;;
67757;SDS011;54562;47.620;18.786;2023-04-01T03:47:05;5.00;;;2.40;;
67757;SDS011;54562;47.620;18.786;2023-04-01T03:50:15;5.10;;;2.10;;
67757;SDS011;54562;47.620;18.786;2023-04-01T03:53:24;4.80;;;2.30;;
67757;SDS011;54562;47.620;18.786;2023-04-01T03:59:38;4.50;;;2.00;;
67757;SDS011;54562;47.620;18.786;2023-04-01T04:02:47;5.30;;;2.20;;
67757;SDS011;54562;47.620;18.786;2023-04-01T04:05:56;4.70;;;2.10;;
67757;SDS011;54562;47.620;18.786;2023-04-01T04:09:04;5.40;;;2.20;;
67757;SDS011;54562;47.620;18.786;2023-04-01T04:12:12;4.80;;;2.10;;
67757;SDS011;54562;47.620;18.786;2023-04-01T04:15:20;5.60;;;2.50;;
67757;SDS011;54562;47.620;18.786;2023-04-01T04:18:28;5.50;;;2.20;;
67757;SDS011;54562;47.620;18.786;2023-04-01T04:21:37;6.90;;;2.20;;
67757;SDS011;54562;47.620;18.786;2023-04-01T04:24:45;6.00;;;2.20;;
67757;SDS011;54562;47.620;18.786;2023-04-01T04:27:54;4.50;;;2.20;;
67757;SDS011;54562;47.620;18.786;2023-04-01T04:31:03;4.90;;;2.20;;
67757;SDS011;54562;47.620;18.786;2023-04-01T04:34:11;5.90;;;2.20;;
67757;SDS011;54562;47.620;18.786;2023-04-01T04:37:20;4.40;;;2.20;;
67757;SDS011;54562;47.620;18.786;2023-04-01T04:40:28;5.10;;;2.30;;
67757;SDS011;54562;47.620;18.786;2023-04-01T04:43:39;4.70;;;2.10;;
67757;SDS011;54562;47.620;18.786;2023-04-01T04:46:48;5.30;;;2.00;;
67757;SDS011;54562;47.620;18.786;2023-04-01T04:49:56;6.90;;;2.30;;
67757;SDS011;54562;47.620;18.786;2023-04-01T04:53:04;7.60;;;2.40;;
67757;SDS011;54562;47.620;18.786;2023-04-01T04:56:16;5.50;;;2.20;;
67757;SDS011;54562;47.620;18.786;2023-04-01T04:59:25;5.30;;;2.00;;
67757;SDS011;54562;47.620;18.786;2023-04-01T05:02:33;5.40;;;2.20;;
67757;SDS011;54562;47.620;18.786;2023-04-01T05:05:49;4.30;;;2.10;;
67757;SDS011;54562;47.620;18.786;2023-04-01T05:08:59;5.10;;;2.30;;
67757;SDS011;54562;47.620;18.786;2023-04-01T05:12:08;5.80;;;2.50;;
67757;SDS011;54562;47.620;18.786;2023-04-01T05:18:24;5.70;;;2.40;;
67757;SDS011;54562;47.620;18.786;2023-04-01T05:21:33;5.60;;;2.50;;
67757;SDS011;54562;47.620;18.786;2023-04-01T05:24:40;5.00;;;2.30;;
67757;SDS011;54562;47.620;18.786;2023-04-01T05:27:49;5.90;;;2.20;;
67757;SDS011;54562;47.620;18.786;2023-04-01T05:30:59;5.60;;;2.20;;
67757;SDS011;54562;47.620;18.786;2023-04-01T05:34:09;5.70;;;2.20;;
67757;SDS011;54562;47.620;18.786;2023-04-01T05:37:17;5.90;;;2.30;;
67757;SDS011;54562;47.620;18.786;2023-04-01T05:40:25;4.50;;;2.00;;
67757;SDS011;54562;47.620;18.786;2023-04-01T05:43:33;5.50;;;2.10;;
67757;SDS011;54562;47.620;18.786;2023-04-01T05:46:44;5.50;;;2.50;;
67757;SDS011;54562;47.620;18.786;2023-04-01T05:49:52;5.90;;;2.70;;
67757;SDS011;54562;47.620;18.786;2023-04-01T05:53:03;6.30;;;2.40;;
67757;SDS011;54562;47.620;18.786;2023-04-01T05:56:11;6.10;;;2.50;;
67757;SDS011;54562;47.620;18.786;2023-04-01T05:59:19;4.30;;;2.10;;
67757;SDS011;54562;47.620;18.786;2023-04-01T06:02:27;6.00;;;2.20;;
67757;SDS011;54562;47.620;18.786;2023-04-01T06:05:40;5.70;;;2.20;;
67757;SDS011;54562;47.620;18.786;2023-04-01T06:08:50;6.10;;;2.20;;
67757;SDS011;54562;47.620;18.786;2023-04-01T06:22:24;4.50;;;2.00;;
67757;SDS011;54562;47.620;18.786;2023-04-01T06:25:56;4.70;;;1.80;;
67757;SDS011;54562;47.620;18.786;2023-04-01T06:29:35;4.70;;;2.10;;
67757;SDS011;54562;47.620;18.786;2023-04-01T06:33:08;4.10;;;2.00;;
67757;SDS011;54562;47.620;18.786;2023-04-01T06:37:00;4.10;;;1.80;;
67757;SDS011;54562;47.620;18.786;2023-04-01T06:40:52;5.30;;;1.90;;
67757;SDS011;54562;47.620;18.786;2023-04-01T06:44:18;5.00;;;2.00;;
67757;SDS011;54562;47.620;18.786;2023-04-01T06:47:41;4.90;;;1.80;;
67757;SDS011;54562;47.620;18.786;2023-04-01T06:51:11;5.20;;;2.00;;
67757;SDS011;54562;47.620;18.786;2023-04-01T06:54:32;5.60;;;2.00;;
67757;SDS011;54562;47.620;18.786;2023-04-01T06:57:46;5.20;;;1.90;;
67757;SDS011;54562;47.620;18.786;2023-04-01T07:00:58;6.50;;;2.30;;
67757;SDS011;54562;47.620;18.786;2023-04-01T07:04:14;5.20;;;2.00;;
67757;SDS011;54562;47.620;18.786;2023-04-01T07:07:31;5.40;;;2.20;;
67757;SDS011;54562;47.620;18.786;2023-04-01T07:11:02;5.00;;;2.00;;
67757;SDS011;54562;47.620;18.786;2023-04-01T07:14:18;5.50;;;2.10;;
67757;SDS011;54562;47.620;18.786;2023-04-01T07:17:31;6.40;;;2.00;;
67757;SDS011;54562;47.620;18.786;2023-04-01T07:20:44;5.70;;;2.10;;
67757;SDS011;54562;47.620;18.786;2023-04-01T07:27:32;4.40;;;2.00;;
67757;SDS011;54562;47.620;18.786;2023-04-01T07:30:57;5.20;;;1.90;;
67757;SDS011;54562;47.620;18.786;2023-04-01T07:34:22;5.20;;;2.00;;
67757;SDS011;54562;47.620;18.786;2023-04-01T07:37:42;5.40;;;1.80;;
67757;SDS011;54562;47.620;18.786;2023-04-01T07:41:06;6.70;;;1.90;;
67757;SDS011;54562;47.620;18.786;2023-04-01T07:44:27;4.90;;;2.10;;
67757;SDS011;54562;47.620;18.786;2023-04-01T07:47:50;4.10;;;1.70;;
67757;SDS011;54562;47.620;18.786;2023-04-01T07:51:11;4.80;;;1.70;;
67757;SDS011;54562;47.620;18.786;2023-04-01T07:54:31;6.10;;;2.20;;
67757;SDS011;54562;47.620;18.786;2023-04-01T07:57:43;4.50;;;1.90;;
67757;SDS011;54562;47.620;18.786;2023-04-01T08:01:09;5.70;;;1.90;;
67757;SDS011;54562;47.620;18.786;2023-04-01T08:04:32;5.50;;;1.90;;
67757;SDS011;54562;47.620;18.786;2023-04-01T08:08:00;6.50;;;2.20;;
67757;SDS011;54562;47.620;18.786;2023-04-01T08:11:27;7.50;;;2.20;;
67757;SDS011;54562;47.620;18.786;2023-04-01T08:18:09;4.60;;;1.90;;
67757;SDS011;54562;47.620;18.786;2023-04-01T08:21:30;5.60;;;2.00;;
67757;SDS011;54562;47.620;18.786;2023-04-01T08:24:44;5.20;;;2.20;;
67757;SDS011;54562;47.620;18.786;2023-04-01T08:27:59;5.30;;;2.10;;
67757;SDS011;54562;47.620;18.786;2023-04-01T08:31:18;4.90;;;2.20;;
67757;SDS011;54562;47.620;18.786;2023-04-01T08:34:34;5.60;;;2.00;;
67757;SDS011;54562;47.620;18.786;2023-04-01T08:37:46;7.40;;;2.10;;
67757;SDS011;54562;47.620;18.786;2023-04-01T08:44:54;4.60;;;1.90;;
67757;SDS011;54562;47.620;18.786;2023-04-01T08:48:59;7.30;;;2.50;;
67757;SDS011;54562;47.620;18.786;2023-04-01T08:52:38;4.50;;;2.10;;
67757;SDS011;54562;47.620;18.786;2023-04-01T08:56:09;5.90;;;1.80;;
67757;SDS011;54562;47.620;18.786;2023-04-01T08:59:40;5.00;;;1.80;;
67757;SDS011;54562;47.620;18.786;2023-04-01T09:07:18;5.40;;;2.00;;
67757;SDS011;54562;47.620;18.786;2023-04-01T09:11:07;6.20;;;2.00;;
67757;SDS011;54562;47.620;18.786;2023-04-01T09:14:27;4.70;;;2.00;;
67757;SDS011;54562;47.620;18.786;2023-04-01T09:18:11;5.80;;;2.00;;
67757;SDS011;54562;47.620;18.786;2023-04-01T09:21:50;5.00;;;2.00;;
67757;SDS011;54562;47.620;18.786;2023-04-01T09:25:40;5.80;;;2.10;;
67757;SDS011;54562;47.620;18.786;2023-04-01T09:29:05;5.60;;;1.90;;
67757;SDS011;54562;47.620;18.786;2023-04-01T09:32:48;7.90;;;2.20;;
67757;SDS011;54562;47.620;18.786;2023-04-01T09:36:25;5.60;;;2.10;;
67757;SDS011;54562;47.620;18.786;2023-04-01T09:39:54;5.70;;;2.30;;
67757;SDS011;54562;47.620;18.786;2023-04-01T09:43:38;4.80;;;2.00;;
67757;SDS011;54562;47.620;18.786;2023-04-01T09:47:20;7.40;;;2.10;;
67757;SDS011;54562;47.620;18.786;2023-04-01T09:50:46;6.30;;;2.40;;
67757;SDS011;54562;47.620;18.786;2023-04-01T09:54:13;6.00;;;2.00;;
67757;SDS011;54562;47.620;18.786;2023-04-01T10:01:01;6.30;;;2.20;;
67757;SDS011;54562;47.620;18.786;2023-04-01T10:04:49;4.70;;;2.00;;
67757;SDS011;54562;47.620;18.786;2023-04-01T10:12:06;5.50;;;2.10;;
67757;SDS011;54562;47.620;18.786;2023-04-01T10:23:40;7.10;;;1.80;;
67757;SDS011;54562;47.620;18.786;2023-04-01T10:27:32;5.10;;;2.00;;
67757;SDS011;54562;47.620;18.786;2023-04-01T10:39:08;4.30;;;1.70;;
67757;SDS011;54562;47.620;18.786;2023-04-01T10:42:55;4.80;;;1.80;;
67757;SDS011;54562;47.620;18.786;2023-04-01T10:47:01;4.80;;;1.90;;
67757;SDS011;54562;47.620;18.786;2023-04-01T10:50:45;7.40;;;2.20;;
67757;SDS011;54562;47.620;18.786;2023-04-01T10:54:20;4.80;;;1.80;;
67757;SDS011;54562;47.620;18.786;2023-04-01T10:58:19;4.50;;;1.60;;
67757;SDS011;54562;47.620;18.786;2023-04-01T11:02:15;7.60;;;2.00;;
67757;SDS011;54562;47.620;18.786;2023-04-01T11:06:05;4.70;;;1.50;;
67757;SDS011;54562;47.620;18.786;2023-04-01T11:22:12;4.20;;;1.70;;
67757;SDS011;54562;47.620;18.786;2023-04-01T11:26:06;4.10;;;1.60;;
67757;SDS011;54562;47.620;18.786;2023-04-01T11:29:36;3.90;;;1.60;;
67757;SDS011;54562;47.620;18.786;2023-04-01T11:33:17;5.80;;;1.80;;
67757;SDS011;54562;47.620;18.786;2023-04-01T11:39:44;4.80;;;1.60;;
67757;SDS011;54562;47.620;18.786;2023-04-01T11:43:09;4.50;;;1.60;;
67757;SDS011;54562;47.620;18.786;2023-04-01T11:46:46;3.90;;;1.50;;
